Time;durP1;ratioP1;P1;durP2;ratioP2;P2;SDS_P1;SDS_P2;PMS_P1;PMS_P2;Temp;Humidity;BMP_temperature;BMP_pressure;BME280_temperature;BME280_humidity;BME280_pressure;Samples;Min_cycle;Max_cycle;Signal;HPM_P1;HPM_P2
2023/01/03 00:01:47;;;;;;;5.70;3.70;;;9.10;84.60;;;11.87;59.60;102269.88;5035744;28;20192;-54
2023/01/03 00:04:16;;;;;;;7.77;3.57;;;9.00;84.90;;;11.91;59.55;102264.16;5035393;28;20205;-54
2023/01/03 00:06:45;;;;;;;7.13;3.60;;;9.10;84.90;;;11.94;58.99;102269.16;5036022;28;20201;-55
2023/01/03 00:09:16;;;;;;;6.60;3.87;;;9.10;84.90;;;11.95;59.35;102268.19;5033957;28;20211;-55
2023/01/03 00:14:39;;;;;;;4.57;3.20;;;9.10;84.30;;;11.87;58.98;102278.63;5039850;28;20182;-56
2023/01/03 00:17:07;;;;;;;5.17;3.37;;;9.10;84.30;;;11.87;59.12;102285.69;5037584;28;20233;-54
2023/01/03 00:19:37;;;;;;;7.63;3.90;;;9.10;84.20;;;11.85;59.17;102283.22;5037134;28;20243;-55
2023/01/03 00:22:04;;;;;;;5.67;3.80;;;9.10;84.30;;;11.84;59.37;102291.28;5036961;28;20183;-54
2023/01/03 00:24:31;;;;;;;5.67;3.93;;;9.10;84.30;;;11.81;58.94;102291.56;5037247;28;20241;-53
2023/01/03 00:27:00;;;;;;;6.43;4.13;;;9.10;84.30;;;11.78;59.12;102297.97;5022238;28;20194;-52
2023/01/03 00:29:27;;;;;;;4.03;3.50;;;9.00;84.20;;;11.76;59.25;102299.91;5024560;28;20574;-55
2023/01/03 00:31:55;;;;;;;9.10;4.50;;;9.00;84.20;;;11.73;59.01;102304.63;5017135;28;20656;-55
2023/01/03 00:34:22;;;;;;;4.33;3.63;;;9.00;84.20;;;11.71;58.96;102306.56;5017124;28;20192;-54
2023/01/03 00:36:49;;;;;;;6.93;4.20;;;9.00;84.30;;;11.70;59.42;102311.03;5017162;28;20222;-60
2023/01/03 00:39:16;;;;;;;7.07;3.83;;;9.00;84.30;;;11.70;59.31;102310.19;5017871;28;20298;-53
2023/01/03 00:41:43;;;;;;;5.93;3.63;;;8.90;84.20;;;11.72;58.75;102310.91;5022184;28;20252;-55
2023/01/03 00:44:12;;;;;;;8.27;4.10;;;8.90;84.40;;;11.71;58.84;102312.69;5021000;28;20258;-55
2023/01/03 00:46:39;;;;;;;7.60;3.73;;;8.90;84.40;;;11.66;59.08;102309.63;5017621;28;20242;-53
2023/01/03 00:49:06;;;;;;;6.37;3.90;;;8.90;84.20;;;11.61;58.87;102311.84;5016830;28;20738;-54
2023/01/03 00:51:37;;;;;;;6.87;3.90;;;8.90;84.10;;;11.57;59.33;102311.31;5017012;28;20194;-55
2023/01/03 00:54:09;;;;;;;6.50;4.50;;;8.80;84.10;;;11.54;59.54;102316.03;5017541;28;20192;-54
2023/01/03 00:56:39;;;;;;;6.07;3.90;;;8.80;84.10;;;11.49;59.07;102320.88;5017294;28;20243;-56
2023/01/03 00:59:06;;;;;;;8.13;4.40;;;8.80;84.30;;;11.46;59.47;102323.78;5016903;28;20214;-55
2023/01/03 01:01:38;;;;;;;7.00;4.20;;;8.80;84.40;;;11.43;59.05;102324.09;5016794;28;20203;-54
2023/01/03 01:04:15;;;;;;;8.60;4.37;;;8.70;84.50;;;11.39;59.25;102325.34;5016921;28;20203;-55
2023/01/03 01:06:46;;;;;;;8.50;4.10;;;8.70;84.50;;;11.36;59.28;102328.28;5016977;28;20643;-55
2023/01/03 01:09:17;;;;;;;8.60;4.47;;;8.60;84.50;;;11.31;59.25;102336.59;5034966;28;20218;-54
2023/01/03 01:11:45;;;;;;;5.90;3.40;;;8.60;84.50;;;11.30;59.85;102339.34;5036442;28;20200;-55
2023/01/03 01:14:19;;;;;;;7.50;3.63;;;8.60;84.70;;;11.28;59.22;102336.03;5036339;28;20224;-53
2023/01/03 01:16:50;;;;;;;7.73;3.90;;;8.60;84.80;;;11.27;59.74;102347.53;5024923;28;20207;-53
2023/01/03 01:19:19;;;;;;;5.13;3.93;;;8.50;84.90;;;11.26;59.22;102348.53;5021579;28;20223;-56
2023/01/03 01:21:46;;;;;;;6.43;3.83;;;8.50;85.00;;;11.26;59.82;102361.72;5036394;28;20187;-56
2023/01/03 01:24:13;;;;;;;7.90;4.33;;;8.50;85.00;;;11.28;60.19;102365.88;5035061;28;20277;-54
2023/01/03 01:26:44;;;;;;;9.00;3.87;;;8.50;85.20;;;11.32;59.77;102369.03;5036226;28;20183;-54
2023/01/03 01:29:13;;;;;;;7.17;4.07;;;8.50;85.20;;;11.33;59.55;102371.56;5035964;28;20256;-55
2023/01/03 01:31:42;;;;;;;9.00;4.33;;;8.50;85.20;;;11.34;59.77;102377.63;5036156;28;20194;-55
2023/01/03 01:34:11;;;;;;;7.47;3.90;;;8.50;85.10;;;11.33;59.26;102381.25;5020414;28;20250;-53
2023/01/03 01:36:41;;;;;;;5.70;3.60;;;8.50;85.10;;;11.33;59.63;102382.09;5016721;28;20215;-56
2023/01/03 01:39:11;;;;;;;7.80;4.50;;;8.50;85.00;;;11.31;59.26;102377.94;5015703;28;20225;-56
2023/01/03 01:44:51;;;;;;;7.80;4.30;;;8.50;84.90;;;11.20;59.28;102391.22;5016545;28;20188;-55
2023/01/03 01:47:37;;;;;;;7.37;4.37;;;8.50;84.90;;;11.17;59.54;102392.34;5016404;28;20245;-53
2023/01/03 01:50:19;;;;;;;6.17;4.23;;;8.50;85.00;;;11.14;59.55;102392.63;5015640;28;20227;-53
2023/01/03 01:52:55;;;;;;;8.17;3.83;;;8.40;84.90;;;11.13;59.77;102401.50;5015973;28;20591;-55
2023/01/03 01:55:27;;;;;;;10.17;4.53;;;8.40;84.90;;;11.13;59.90;102393.59;5015723;28;20296;-55
2023/01/03 01:57:54;;;;;;;7.50;4.67;;;8.40;84.80;;;11.14;59.74;102397.91;5015496;28;20214;-54
2023/01/03 02:00:21;;;;;;;6.93;4.70;;;8.40;85.80;;;11.15;59.86;102393.47;5015585;28;20218;-55
2023/01/03 02:02:52;;;;;;;5.90;4.37;;;8.40;85.10;;;11.16;59.34;102392.47;5015874;28;20671;-55
2023/01/03 02:05:22;;;;;;;4.43;4.03;;;8.30;85.00;;;11.16;59.96;102395.13;5015842;28;20194;-52
2023/01/03 02:07:51;;;;;;;7.87;4.80;;;8.30;85.10;;;11.17;60.07;102396.81;5028860;28;20194;-55
2023/01/03 02:10:31;;;;;;;9.10;4.93;;;8.30;85.10;;;11.15;59.57;102398.75;5035512;28;20294;-51
2023/01/03 02:13:19;;;;;;;8.67;5.20;;;8.30;85.00;;;11.09;59.52;102394.84;5035439;28;20180;-55
2023/01/03 02:16:03;;;;;;;7.87;4.23;;;8.30;85.00;;;11.09;59.92;102404.53;5029215;28;20286;-52
2023/01/03 02:18:56;;;;;;;8.40;3.83;;;8.30;84.90;;;11.06;59.84;102394.28;5022860;28;20218;-54
2023/01/03 02:22:07;;;;;;;6.27;3.70;;;8.30;85.00;;;11.03;59.52;102384.03;5035446;28;20273;-55
2023/01/03 02:25:27;;;;;;;10.07;4.73;;;8.30;85.00;;;10.99;59.62;102388.72;5034982;28;20198;-54
2023/01/03 02:28:37;;;;;;;10.23;4.67;;;8.30;85.00;;;10.97;59.52;102390.66;5035004;28;20209;-53
2023/01/03 02:31:13;;;;;;;8.87;4.80;;;8.30;84.80;;;10.98;60.17;102388.88;5031640;28;20282;-52
2023/01/03 02:33:52;;;;;;;5.80;4.27;;;8.30;85.00;;;10.99;59.60;102399.25;5035304;28;20209;-53
2023/01/03 02:36:30;;;;;;;9.27;4.47;;;8.30;85.00;;;11.00;59.63;102397.47;5035070;28;20182;-55
2023/01/03 02:39:07;;;;;;;6.23;4.70;;;8.30;85.00;;;11.00;59.77;102400.94;5034239;28;20225;-52
2023/01/03 02:41:43;;;;;;;7.07;4.70;;;8.20;84.90;;;10.99;59.75;102401.06;5034890;28;20205;-53
2023/01/03 02:44:21;;;;;;;7.43;4.93;;;8.20;84.80;;;10.99;59.89;102398.41;5035104;28;20195;-55
2023/01/03 02:46:54;;;;;;;9.23;5.50;;;8.20;84.70;;;10.96;59.67;102396.09;5034785;28;20193;-55
2023/01/03 02:49:30;;;;;;;8.33;5.33;;;8.20;84.60;;;10.94;60.00;102400.63;5022972;28;20243;-53
2023/01/03 02:52:03;;;;;;;7.03;4.73;;;8.20;84.60;;;10.91;59.42;102398.28;5015145;28;20209;-55
2023/01/03 02:54:38;;;;;;;9.73;5.10;;;8.20;84.50;;;10.87;59.72;102401.19;5014576;28;20179;-54
2023/01/03 02:57:13;;;;;;;7.93;5.27;;;8.20;84.60;;;10.84;59.77;102406.72;5014581;28;20202;-55
2023/01/03 02:59:46;;;;;;;7.73;5.07;;;8.20;84.60;;;10.82;59.35;102406.03;5015017;28;20272;-55
2023/01/03 03:02:20;;;;;;;6.13;4.37;;;8.20;84.70;;;10.81;59.92;102406.16;5015092;28;20183;-54
2023/01/03 03:04:54;;;;;;;10.60;5.63;;;8.10;85.50;;;10.78;59.33;102407.25;5015309;28;20198;-54
2023/01/03 03:07:26;;;;;;;7.97;5.37;;;8.10;84.70;;;10.73;60.05;102398.94;5031211;28;20198;-56
2023/01/03 03:15:39;;;;;;;6.30;5.67;;;8.00;84.70;;;10.61;59.99;102407.06;5034186;28;20286;-55
2023/01/03 03:18:15;;;;;;;8.47;5.67;;;8.00;84.80;;;10.58;59.60;102413.41;5033735;28;20232;-55
2023/01/03 03:26:25;;;;;;;9.70;6.00;;;7.90;84.90;;;10.49;60.27;102430.03;5014019;28;20180;-56
2023/01/03 03:29:00;;;;;;;10.07;6.03;;;7.80;84.90;;;10.48;59.76;102436.28;5013648;28;20217;-55
2023/01/03 03:31:35;;;;;;;11.03;6.10;;;7.80;84.90;;;10.47;59.97;102439.84;5014052;28;20223;-53
2023/01/03 03:34:10;;;;;;;9.07;6.10;;;7.80;84.90;;;10.47;60.00;102439.00;5012925;28;20663;-53
2023/01/03 03:36:46;;;;;;;7.53;5.77;;;7.80;85.10;;;10.46;60.46;102440.81;5014086;28;20198;-54
2023/01/03 03:45:22;;;;;;;10.50;5.47;;;7.70;85.00;;;10.36;60.30;102453.09;5033517;28;20193;-55
2023/01/03 03:48:00;;;;;;;7.50;5.90;;;7.70;84.80;;;10.34;60.32;102449.75;5033228;28;20196;-56
2023/01/03 03:50:37;;;;;;;7.40;5.40;;;7.70;84.80;;;10.34;60.26;102449.75;5034017;28;20213;-52
2023/01/03 03:53:09;;;;;;;9.40;6.17;;;7.70;84.80;;;10.33;60.25;102445.47;5033291;28;20198;-52
2023/01/03 03:55:43;;;;;;;6.87;5.50;;;7.60;84.70;;;10.34;59.69;102455.00;5033463;28;20175;-55
2023/01/03 03:58:19;;;;;;;7.53;5.73;;;7.60;84.70;;;10.33;59.65;102463.88;5033294;28;20209;-55
2023/01/03 04:00:50;;;;;;;8.07;5.63;;;7.60;84.80;;;10.35;59.68;102458.47;5033167;28;20209;-54
2023/01/03 04:03:20;;;;;;;8.97;6.30;;;7.60;84.90;;;10.36;60.20;102462.78;5033462;28;20200;-55
2023/01/03 04:05:54;;;;;;;8.77;5.13;;;7.60;84.80;;;10.34;60.19;102468.16;5033371;28;20551;-56
2023/01/03 04:08:21;;;;;;;4.80;4.37;;;7.60;84.80;;;10.35;60.15;102467.22;5029896;28;20677;-56
2023/01/03 04:10:49;;;;;;;10.13;6.00;;;7.60;85.00;;;10.40;60.12;102472.94;5031208;28;20190;-53
2023/01/03 04:13:16;;;;;;;8.40;5.60;;;7.60;85.80;;;10.44;60.44;102469.06;5034105;28;20193;-55
2023/01/03 04:15:43;;;;;;;8.67;5.43;;;7.60;85.20;;;10.46;60.26;102472.38;5035132;28;20209;-56
2023/01/03 04:18:10;;;;;;;9.00;5.90;;;7.70;85.20;;;10.49;59.68;102468.66;5034864;28;20567;-55
2023/01/03 04:20:36;;;;;;;8.77;5.93;;;7.70;84.80;;;10.47;59.32;102471.44;5034576;28;20305;-55
2023/01/03 04:23:05;;;;;;;10.03;5.10;;;7.70;84.60;;;10.46;59.52;102480.28;5033936;28;20209;-55
2023/01/03 04:25:32;;;;;;;9.73;5.73;;;7.70;84.70;;;10.47;59.32;102476.69;5035936;28;20624;-55
2023/01/03 04:27:59;;;;;;;9.70;6.43;;;7.70;84.40;;;10.45;59.67;102483.06;5034555;28;20183;-54
2023/01/03 04:30:25;;;;;;;12.30;5.50;;;7.70;84.10;;;10.42;59.26;102478.88;5033965;28;20214;-53
2023/01/03 04:32:52;;;;;;;10.13;6.20;;;7.70;84.10;;;10.41;60.15;102471.94;5033784;28;20631;-52
2023/01/03 04:35:19;;;;;;;7.87;5.37;;;7.70;84.10;;;10.40;59.68;102479.97;5033774;28;20202;-54
2023/01/03 04:37:46;;;;;;;7.37;5.93;;;7.60;84.10;;;10.37;59.07;102478.44;5033581;28;20246;-55
2023/01/03 04:40:15;;;;;;;9.23;5.70;;;7.60;84.00;;;10.38;59.72;102479.28;5033728;28;20214;-54
2023/01/03 04:45:27;;;;;;;10.67;5.73;;;7.60;84.20;;;10.34;59.63;102476.06;5033082;28;20265;-56
2023/01/03 04:47:54;;;;;;;7.87;5.30;;;7.60;84.30;;;10.31;59.69;102484.25;5032820;28;20198;-52
2023/01/03 04:50:21;;;;;;;9.53;5.67;;;7.60;84.20;;;10.33;59.71;102478.84;5032380;28;20237;-53
2023/01/03 04:52:48;;;;;;;10.47;5.70;;;7.60;84.90;;;10.34;59.83;102478.69;5032746;28;20693;-52
2023/01/03 04:55:16;;;;;;;7.87;5.50;;;7.60;85.00;;;10.38;60.02;102474.84;5038321;28;20644;-56
2023/01/03 04:57:43;;;;;;;12.10;6.67;;;7.60;85.00;;;10.37;59.43;102482.88;5032615;28;20222;-55
2023/01/03 05:00:12;;;;;;;9.20;5.47;;;7.70;84.10;;;10.31;58.80;102476.34;5036046;28;20222;-53
2023/01/03 05:02:39;;;;;;;10.03;5.93;;;7.70;83.30;;;10.25;59.06;102479.47;5036324;28;20705;-53
2023/01/03 05:05:07;;;;;;;7.70;5.73;;;7.70;83.00;;;10.24;59.24;102479.63;5035624;28;20209;-54
2023/01/03 05:07:35;;;;;;;10.47;5.80;;;7.60;83.50;;;10.25;59.57;102476.84;5036186;28;20560;-53
2023/01/03 05:10:02;;;;;;;7.60;5.50;;;7.60;84.10;;;10.31;59.82;102476.34;5036293;28;20207;-53
2023/01/03 05:12:30;;;;;;;7.40;5.77;;;7.60;84.00;;;10.32;58.82;102480.63;5036223;28;20210;-54
2023/01/03 05:14:57;;;;;;;9.67;6.23;;;7.70;83.70;;;10.29;59.28;102482.69;5036112;28;20190;-54
2023/01/03 05:17:24;;;;;;;11.80;6.27;;;7.70;83.30;;;10.22;59.50;102485.03;5036212;28;20573;-55
2023/01/03 05:28:09;;;;;;;10.50;5.90;;;7.50;82.60;;;9.87;59.90;102484.44;5016326;28;20222;-56
2023/01/03 05:30:43;;;;;;;6.17;5.43;;;7.40;82.90;;;9.78;59.68;102493.09;5016513;28;20206;-54
2023/01/03 05:33:10;;;;;;;8.83;5.40;;;7.40;83.10;;;9.73;60.31;102482.94;5027124;28;20611;-53
2023/01/03 05:35:37;;;;;;;11.53;6.77;;;7.30;83.10;;;9.74;60.21;102491.69;5034776;28;20198;-52
2023/01/03 05:38:04;;;;;;;10.77;6.47;;;7.30;83.50;;;9.73;60.40;102484.75;5035638;28;20225;-53
2023/01/03 05:40:31;;;;;;;13.90;7.13;;;7.30;83.80;;;9.75;60.19;102488.91;5035836;28;20700;-54
2023/01/03 05:43:07;;;;;;;11.60;7.23;;;7.30;84.10;;;9.78;60.33;102487.84;5035999;28;20178;-55
2023/01/03 05:45:36;;;;;;;8.37;6.17;;;7.20;84.30;;;9.76;60.42;102495.00;5035589;28;20202;-55
2023/01/03 05:48:04;;;;;;;10.53;6.37;;;7.20;84.60;;;9.72;60.71;102498.88;5035061;28;20529;-55
2023/01/03 05:50:31;;;;;;;9.73;7.43;;;7.20;84.80;;;9.69;61.07;102507.00;5035814;28;20233;-54
2023/01/03 05:52:57;;;;;;;11.27;7.57;;;7.20;84.80;;;9.66;61.54;102499.34;5035629;28;20659;-54
2023/01/03 05:55:25;;;;;;;8.33;6.60;;;7.20;85.10;;;9.63;61.83;102504.88;5035212;28;20198;-53
2023/01/03 05:57:52;;;;;;;11.60;7.73;;;7.10;85.10;;;9.65;61.07;102503.75;5035536;28;20189;-56
2023/01/03 06:00:19;;;;;;;10.73;7.07;;;7.10;85.10;;;9.68;61.21;102507.94;5032500;28;20214;-53
2023/01/03 06:02:47;;;;;;;11.03;7.10;;;7.10;85.10;;;9.69;61.59;102512.25;5021191;28;20209;-53
2023/01/03 06:05:14;;;;;;;10.00;7.73;;;7.20;85.30;;;9.74;61.21;102516.19;5035055;28;20223;-54
2023/01/03 06:07:41;;;;;;;11.17;8.03;;;7.20;85.50;;;9.75;60.90;102517.00;5035134;28;20683;-51
2023/01/03 06:10:09;;;;;;;14.53;7.90;;;7.20;85.30;;;9.75;60.95;102519.63;5034507;28;20216;-53
2023/01/03 06:12:36;;;;;;;12.70;7.77;;;7.20;85.00;;;9.70;60.74;102516.56;5034876;28;20195;-53
2023/01/03 06:15:05;;;;;;;17.83;8.80;;;7.20;85.00;;;9.70;61.13;102516.56;5028708;28;20187;-56
2023/01/03 06:20:18;;;;;;;11.90;7.53;;;7.10;84.70;;;9.55;61.30;102534.41;5014972;28;20210;-56
2023/01/03 06:22:45;;;;;;;20.10;8.53;;;7.10;84.50;;;9.57;61.22;102531.66;5015608;28;20610;-53
2023/01/03 06:25:12;;;;;;;12.30;9.23;;;7.10;85.30;;;9.54;61.67;102533.56;5015074;28;20206;-54
2023/01/03 06:27:39;;;;;;;8.73;7.63;;;7.00;85.10;;;9.49;61.57;102535.72;5014828;28;20195;-53
2023/01/03 06:30:08;;;;;;;12.67;8.97;;;7.00;85.00;;;9.40;61.71;102536.47;5027219;28;20272;-55
2023/01/03 06:32:35;;;;;;;11.50;8.57;;;7.00;85.20;;;9.34;61.46;102536.13;5034454;28;20190;-53
2023/01/03 06:35:02;;;;;;;14.70;8.83;;;6.90;85.10;;;9.37;61.77;102541.97;5034708;28;20297;-56
2023/01/03 06:37:31;;;;;;;12.50;9.13;;;6.90;85.60;;;9.42;61.59;102539.81;5034424;28;20655;-53
2023/01/03 06:39:58;;;;;;;14.87;9.57;;;6.90;85.80;;;9.44;62.07;102537.88;5034489;28;20218;-53
2023/01/03 06:42:41;;;;;;;12.53;9.70;;;6.90;86.20;;;9.49;62.43;102540.97;5035068;28;20194;-57
2023/01/03 06:53:38;;;;;;;13.13;9.37;;;7.00;86.80;;;9.73;61.44;102555.72;5014697;28;20194;-53
2023/01/03 06:56:06;;;;;;;13.70;9.70;;;7.10;86.60;;;9.85;62.04;102562.63;5014920;28;20276;-52
2023/01/03 06:58:34;;;;;;;14.37;9.47;;;7.10;86.70;;;9.95;61.04;102558.28;5033158;28;20227;-54
2023/01/03 07:01:03;;;;;;;17.93;12.17;;;7.20;86.70;;;9.99;61.26;102559.69;5034422;28;20195;-54
2023/01/03 07:03:31;;;;;;;15.33;11.13;;;7.20;86.20;;;9.98;61.03;102564.13;5033928;28;20187;-53
2023/01/03 07:05:58;;;;;;;20.10;11.27;;;7.30;85.90;;;10.00;61.33;102566.66;5034016;28;20237;-53
2023/01/03 07:08:25;;;;;;;14.37;10.40;;;7.30;85.80;;;10.01;61.06;102573.56;5033914;28;20290;-54
2023/01/03 07:10:54;;;;;;;15.87;10.70;;;7.30;85.80;;;10.03;60.80;102575.09;5034216;28;20560;-53
2023/01/03 07:16:12;;;;;;;17.97;10.63;;;7.40;85.60;;;10.05;60.81;102580.25;5034316;28;20662;-53
2023/01/03 07:18:39;;;;;;;17.23;12.03;;;7.40;85.60;;;10.04;61.14;102583.84;5033621;28;20203;-52
2023/01/03 07:21:07;;;;;;;15.13;10.27;;;7.40;85.40;;;9.97;61.43;102583.50;5033855;28;20206;-53
2023/01/03 07:23:34;;;;;;;14.67;12.13;;;7.40;85.40;;;9.98;60.81;102589.63;5033251;28;20194;-53
2023/01/03 07:26:03;;;;;;;17.03;11.90;;;7.40;85.40;;;9.92;61.21;102585.69;5033840;28;20195;-55
2023/01/03 07:28:30;;;;;;;14.97;11.87;;;7.40;85.30;;;9.94;61.11;102588.16;5034324;28;20199;-55
2023/01/03 07:31:01;;;;;;;14.33;10.70;;;7.40;85.30;;;10.01;60.88;102589.34;5034230;28;20187;-55
2023/01/03 07:33:28;;;;;;;14.27;10.13;;;7.40;85.60;;;10.13;61.09;102598.91;5034339;28;20191;-55
2023/01/03 07:36:00;;;;;;;18.13;13.00;;;7.40;86.10;;;10.15;60.92;102595.19;5033669;28;20194;-55
2023/01/03 07:38:35;;;;;;;22.60;14.10;;;7.50;85.50;;;10.16;60.81;102598.66;5033642;28;20220;-55
2023/01/03 07:41:06;;;;;;;19.43;13.43;;;7.50;85.10;;;10.11;60.70;102600.78;5019478;28;20215;-52
2023/01/03 07:43:36;;;;;;;21.07;13.57;;;7.50;84.80;;;10.09;60.43;102607.97;5013740;28;20183;-56
2023/01/03 07:46:09;;;;;;;19.93;13.17;;;7.50;84.70;;;10.06;60.83;102608.22;5027270;28;20190;-53
2023/01/03 07:48:37;;;;;;;21.67;14.77;;;7.50;84.80;;;10.01;60.64;102610.38;5033044;28;20229;-53
2023/01/03 07:51:06;;;;;;;20.57;14.33;;;7.50;85.60;;;9.98;61.10;102615.91;5032066;28;20218;-53
2023/01/03 07:53:34;;;;;;;19.97;14.20;;;7.50;85.00;;;9.87;61.31;102623.81;5030498;28;20706;-55
2023/01/03 07:56:07;;;;;;;20.57;13.57;;;7.40;85.10;;;9.88;61.10;102612.34;5025760;28;20198;-55
2023/01/03 07:58:40;;;;;;;16.53;12.43;;;7.40;85.20;;;10.01;61.74;102616.50;5033279;28;20210;-54
2023/01/03 08:01:10;;;;;;;19.33;14.00;;;7.40;85.80;;;10.15;61.22;102612.75;5031650;28;20268;-52
2023/01/03 08:03:38;;;;;;;20.47;14.73;;;7.50;85.90;;;10.14;60.81;102626.88;5035850;28;20195;-56
2023/01/03 08:06:08;;;;;;;22.80;15.10;;;7.50;85.20;;;10.12;60.53;102631.44;5036349;28;20281;-56
2023/01/03 08:08:36;;;;;;;19.90;13.80;;;7.50;84.90;;;10.05;60.76;102622.34;5034062;28;20562;-53
2023/01/03 08:13:51;;;;;;;21.50;14.60;;;7.50;84.80;;;9.86;60.92;102636.16;5033323;28;20198;-55
2023/01/03 08:16:18;;;;;;;20.43;14.07;;;7.40;84.70;;;9.90;61.05;102631.47;5033075;28;20186;-54
2023/01/03 08:18:46;;;;;;;19.90;14.50;;;7.40;84.70;;;9.97;60.55;102638.75;5026374;28;20314;-52
2023/01/03 08:21:14;;;;;;;18.67;14.37;;;7.40;84.70;;;10.06;60.72;102642.41;5013376;28;20191;-53
2023/01/03 08:23:42;;;;;;;19.30;14.07;;;7.40;85.00;;;10.08;60.55;102648.38;5013439;28;20203;-56
2023/01/03 08:26:13;;;;;;;20.37;14.37;;;7.40;85.00;;;10.05;60.23;102643.41;5013742;28;20282;-54
2023/01/03 08:28:43;;;;;;;21.20;15.00;;;7.40;85.00;;;10.05;60.53;102648.66;5018079;28;20621;-53
2023/01/03 08:31:15;;;;;;;21.70;14.63;;;7.40;85.10;;;10.17;61.67;102645.88;5012872;28;20195;-55
2023/01/03 08:33:49;;;;;;;19.40;14.87;;;7.50;86.40;;;10.36;60.82;102642.59;5014438;28;20671;-54
2023/01/03 08:36:17;;;;;;;22.27;14.73;;;7.60;86.30;;;10.38;59.89;102643.31;5016939;28;20952;-53
2023/01/03 08:38:53;;;;;;;20.93;15.67;;;7.70;85.20;;;10.40;59.45;102645.81;5016626;28;20229;-55
2023/01/03 08:41:27;;;;;;;20.57;14.40;;;7.70;84.60;;;10.37;59.75;102648.69;5027732;28;20182;-55
2023/01/03 08:43:56;;;;;;;20.93;14.77;;;7.70;84.30;;;10.38;59.91;102655.63;5037354;28;20191;-54
2023/01/03 08:46:24;;;;;;;22.80;15.53;;;7.70;84.20;;;10.34;59.47;102655.03;5037961;28;20198;-52
2023/01/03 08:48:51;;;;;;;25.00;16.63;;;7.70;83.90;;;10.26;60.22;102665.38;5036746;28;20214;-52
2023/01/03 08:51:18;;;;;;;22.63;15.37;;;7.70;83.80;;;10.23;60.38;102657.72;5031401;28;20190;-53
2023/01/03 08:53:45;;;;;;;21.13;16.20;;;7.70;84.00;;;10.13;60.39;102670.78;5037002;28;20197;-54
2023/01/03 08:56:12;;;;;;;20.67;14.40;;;7.60;84.50;;;10.15;59.83;102668.84;5036673;28;20229;-54
2023/01/03 08:58:40;;;;;;;18.20;13.60;;;7.70;84.10;;;10.20;60.17;102668.47;5035945;28;20217;-55
2023/01/03 09:01:10;;;;;;;19.77;13.90;;;7.60;84.30;;;10.30;60.50;102668.56;5034192;28;20205;-55
2023/01/03 09:03:37;;;;;;;19.83;15.07;;;7.60;84.90;;;10.40;60.44;102670.34;5036375;28;20229;-54
2023/01/03 09:06:05;;;;;;;19.87;14.50;;;7.70;84.50;;;10.46;59.24;102675.09;5036429;28;20555;-55
2023/01/03 09:08:33;;;;;;;24.87;15.97;;;7.70;84.50;;;10.41;59.40;102682.53;5037263;28;20202;-55
2023/01/03 09:11:04;;;;;;;23.80;15.53;;;7.70;83.70;;;10.29;59.01;102678.28;5037329;28;20527;-55
2023/01/03 09:13:32;;;;;;;21.47;14.70;;;7.70;83.20;;;10.23;59.74;102676.13;5037523;28;20236;-55
2023/01/03 09:16:01;;;;;;;20.97;14.63;;;7.70;83.20;;;10.21;60.12;102685.94;5036087;28;20285;-54
2023/01/03 09:18:28;;;;;;;19.10;14.87;;;7.70;83.40;;;10.23;59.34;102677.91;5035650;28;20197;-55
2023/01/03 09:20:55;;;;;;;20.40;15.07;;;7.70;83.10;;;10.22;59.57;102682.38;5037436;28;20242;-55
2023/01/03 09:23:22;;;;;;;18.97;14.17;;;7.70;83.10;;;10.30;59.81;102687.00;5036558;28;20198;-52
2023/01/03 09:25:49;;;;;;;21.97;15.13;;;7.70;83.50;;;10.35;59.19;102688.28;5036007;28;20190;-54
2023/01/03 09:28:17;;;;;;;22.73;14.53;;;7.70;83.20;;;10.37;58.75;102696.06;5035405;28;20194;-54
2023/01/03 09:30:44;;;;;;;18.73;14.90;;;7.70;82.80;;;10.27;58.82;102701.22;5041739;28;20617;-54
2023/01/03 09:33:12;;;;;;;20.27;13.10;;;7.60;82.00;;;10.14;58.61;102695.28;5042304;28;20217;-56
2023/01/03 09:35:39;;;;;;;21.23;15.73;;;7.60;82.10;;;10.20;58.33;102689.53;5039680;28;20198;-56
2023/01/03 09:38:06;;;;;;;20.33;15.30;;;7.60;82.20;;;10.23;59.03;102694.56;5022507;28;20660;-56
2023/01/03 09:40:39;;;;;;;19.73;13.60;;;7.60;82.50;;;10.30;58.81;102693.09;5023077;28;20225;-54
2023/01/03 09:43:13;;;;;;;20.27;13.73;;;7.60;82.90;;;10.39;58.50;102691.53;5020910;28;20208;-54
2023/01/03 09:45:52;;;;;;;23.60;15.07;;;7.60;82.30;;;10.46;58.27;102685.63;5025751;28;20199;-54
2023/01/03 09:48:31;;;;;;;19.03;13.67;;;7.60;82.40;;;10.52;58.23;102690.38;5037916;28;20228;-55
2023/01/03 09:50:58;;;;;;;22.00;14.23;;;7.60;82.40;;;10.62;58.53;102678.16;5036557;28;20632;-57
2023/01/03 10:05:35;;;;;;;21.13;14.43;;;7.80;81.40;;;10.44;58.11;102681.44;5035845;28;20671;-53
2023/01/03 10:08:18;;;;;;;19.60;14.83;;;7.80;81.20;;;10.40;58.16;102680.88;5034860;28;20183;-57
2023/01/03 10:10:56;;;;;;;18.87;14.43;;;7.80;81.30;;;10.42;57.74;102686.84;5015321;28;20213;-53
2023/01/03 10:13:41;;;;;;;21.40;16.10;;;7.80;81.60;;;10.33;58.53;102692.84;5016044;28;20197;-54
2023/01/03 10:16:23;;;;;;;22.20;15.57;;;7.80;82.00;;;10.33;58.63;102684.97;5016138;28;20519;-55
2023/01/03 10:19:11;;;;;;;19.77;14.67;;;7.80;82.10;;;10.47;58.30;102671.50;5015811;28;20218;-57
2023/01/03 10:21:51;;;;;;;19.17;14.63;;;7.70;82.40;;;10.62;57.95;102675.50;5015365;28;20243;-55
2023/01/03 10:24:24;;;;;;;20.50;15.03;;;7.80;82.90;;;10.73;57.72;102678.09;5015488;28;20215;-56
2023/01/03 10:26:55;;;;;;;22.60;16.13;;;7.80;83.00;;;10.77;57.57;102673.38;5033424;28;20224;-56
2023/01/03 10:29:23;;;;;;;21.07;15.97;;;7.80;82.80;;;10.76;57.94;102669.94;5034320;28;20207;-56
2023/01/03 10:32:11;;;;;;;23.23;16.70;;;7.80;82.60;;;10.70;57.68;102659.91;5034484;28;20228;-53
2023/01/03 10:34:39;;;;;;;23.40;16.37;;;7.80;82.50;;;10.61;58.09;102668.56;5034473;28;20190;-56
2023/01/03 10:37:16;;;;;;;24.57;15.57;;;7.90;82.70;;;10.71;58.12;102671.28;5035356;28;20206;-56
2023/01/03 10:39:43;;;;;;;21.80;16.53;;;7.90;83.00;;;10.83;57.90;102663.19;5034808;28;20716;-56
2023/01/03 10:42:18;;;;;;;22.53;15.80;;;7.90;83.10;;;10.95;58.29;102660.47;5034458;28;20206;-55
2023/01/03 10:44:59;;;;;;;23.73;17.83;;;8.00;83.30;;;10.98;57.74;102657.59;5034948;28;20198;-54
2023/01/03 10:47:26;;;;;;;18.43;14.83;;;8.00;82.90;;;11.09;57.98;102657.50;5035160;28;20186;-56
2023/01/03 10:49:59;;;;;;;21.03;15.97;;;8.10;82.90;;;11.23;57.87;102644.81;5032054;28;20210;-55
2023/01/03 10:52:38;;;;;;;19.27;14.60;;;8.10;83.00;;;11.36;57.26;102649.88;5032326;28;20285;-57
2023/01/03 10:55:13;;;;;;;23.30;17.40;;;8.20;83.30;;;11.35;57.47;102654.31;5030219;28;20195;-55
2023/01/03 10:57:47;;;;;;;23.73;18.53;;;8.30;82.70;;;11.36;57.13;102644.63;5025411;28;20635;-56
2023/01/03 11:00:25;;;;;;;25.03;17.80;;;8.40;82.20;;;11.15;57.33;102651.72;5035532;28;20265;-56
2023/01/03 11:02:54;;;;;;;22.53;16.27;;;8.40;81.70;;;11.17;57.62;102650.59;5035952;28;20205;-56
2023/01/03 11:05:26;;;;;;;25.73;17.57;;;8.40;81.90;;;11.33;57.46;102642.22;5035820;28;20193;-57
2023/01/03 11:07:58;;;;;;;26.40;20.07;;;8.50;82.50;;;11.49;57.25;102643.41;5032682;28;20264;-53
2023/01/03 11:10:35;;;;;;;24.60;18.43;;;8.50;82.30;;;11.47;56.61;102644.50;5034546;28;20214;-53
2023/01/03 11:13:22;;;;;;;22.27;17.23;;;8.60;81.40;;;11.44;56.59;102652.69;5036488;28;20190;-54
2023/01/03 11:15:53;;;;;;;21.40;16.47;;;8.70;81.30;;;11.32;57.03;102645.81;5035995;28;20207;-54
2023/01/03 11:18:21;;;;;;;23.43;17.50;;;8.60;80.80;;;11.22;57.52;102642.34;5035456;28;20221;-53
2023/01/03 11:20:58;;;;;;;20.40;15.83;;;8.60;80.90;;;11.24;57.21;102637.75;5035208;28;20551;-57
2023/01/03 11:24:02;;;;;;;23.67;18.90;;;8.60;81.10;;;11.25;57.03;102631.50;5037743;28;20210;-57
2023/01/03 11:26:49;;;;;;;23.33;16.83;;;8.60;81.20;;;11.28;57.06;102633.88;5028080;28;20201;-55
2023/01/03 11:29:51;;;;;;;23.23;17.37;;;8.70;81.70;;;11.33;56.54;102619.34;5036359;28;20587;-54
2023/01/03 11:32:34;;;;;;;22.33;17.03;;;8.70;81.20;;;11.37;56.96;102630.44;5036186;28;20186;-53
2023/01/03 11:35:38;;;;;;;22.43;16.97;;;8.70;80.80;;;11.42;56.85;102628.25;5039040;28;20182;-53